createdAt,value
2017-12-09T00:00:23.732Z,92.70
2017-12-09T00:02:51.985Z,92.70
2017-12-09T00:05:19.418Z,92.70
2017-12-09T00:07:46.858Z,92.70
2017-12-09T00:10:14.488Z,92.70
2017-12-09T00:12:41.925Z,92.70
2017-12-09T00:15:10.129Z,92.70
2017-12-09T00:17:37.724Z,92.70
2017-12-09T00:20:05.156Z,92.70
2017-12-09T00:22:41.380Z,92.70
2017-12-09T00:25:09.646Z,92.60
2017-12-09T00:27:46.570Z,92.60
2017-12-09T00:30:15.003Z,92.60
2017-12-09T00:32:42.433Z,92.50
2017-12-09T00:35:10.085Z,92.60
2017-12-09T00:37:37.522Z,92.60
2017-12-09T00:40:04.978Z,92.70
2017-12-09T00:42:32.418Z,92.70
2017-12-09T00:45:00.817Z,92.70
2017-12-09T00:47:28.297Z,92.70
2017-12-09T00:49:55.730Z,92.70
2017-12-09T00:52:23.199Z,92.60
2017-12-09T00:54:50.772Z,92.60
2017-12-09T00:57:18.206Z,92.50
2017-12-09T00:59:45.640Z,92.50
2017-12-09T01:02:14.036Z,92.50
2017-12-09T01:04:41.470Z,92.50
2017-12-09T01:07:09.675Z,92.50
2017-12-09T01:09:37.137Z,92.50
2017-12-09T01:12:04.565Z,92.50
2017-12-09T01:14:45.575Z,92.50
2017-12-09T01:17:24.932Z,92.50
2017-12-09T01:19:52.367Z,92.50
2017-12-09T01:22:19.795Z,92.50
2017-12-09T01:24:47.295Z,92.40
2017-12-09T01:27:14.741Z,92.40
2017-12-09T01:29:42.191Z,92.70
2017-12-09T01:32:13.344Z,92.40
2017-12-09T01:34:40.781Z,92.40
2017-12-09T01:37:08.209Z,92.40
2017-12-09T01:39:40.452Z,92.40
2017-12-09T01:42:07.897Z,92.40
2017-12-09T01:44:38.345Z,92.40
2017-12-09T01:47:05.965Z,92.40
2017-12-09T01:49:33.406Z,92.40
2017-12-09T01:52:00.841Z,92.30
2017-12-09T01:54:29.131Z,92.40
2017-12-09T01:56:57.342Z,92.30
2017-12-09T01:59:24.808Z,92.30
2017-12-09T02:01:52.247Z,92.30
2017-12-09T02:04:19.682Z,92.30
2017-12-09T02:06:47.916Z,92.30
2017-12-09T02:09:17.350Z,92.30
2017-12-09T02:11:45.693Z,92.30
2017-12-09T02:14:13.128Z,92.30
2017-12-09T02:16:40.598Z,92.30
2017-12-09T02:19:08.032Z,92.30
2017-12-09T02:21:35.465Z,92.30
2017-12-09T02:24:03.713Z,92.30
2017-12-09T02:26:31.384Z,92.30
2017-12-09T02:28:58.816Z,92.40
2017-12-09T02:31:26.349Z,92.40
2017-12-09T02:33:53.787Z,92.30
2017-12-09T02:36:21.342Z,92.30
2017-12-09T02:38:48.772Z,92.20
2017-12-09T02:41:16.210Z,92.20
2017-12-09T02:43:43.874Z,92.20
2017-12-09T02:46:11.305Z,92.20
2017-12-09T02:48:38.767Z,92.10
2017-12-09T02:51:10.193Z,92.40
2017-12-09T02:53:37.621Z,92.10
2017-12-09T02:56:05.835Z,92.10
2017-12-09T02:58:33.301Z,92.00
2017-12-09T03:01:00.748Z,92.10
2017-12-09T03:03:28.261Z,92.10
2017-12-09T03:05:55.748Z,92.20
2017-12-09T03:08:23.184Z,92.10
2017-12-09T03:10:51.388Z,92.10
2017-12-09T03:13:18.854Z,92.10
2017-12-09T03:15:46.316Z,92.10
2017-12-09T03:18:13.759Z,92.20
2017-12-09T03:20:41.377Z,92.10
2017-12-09T03:23:08.813Z,92.10
2017-12-09T03:25:37.208Z,92.10
2017-12-09T03:28:04.712Z,92.00
2017-12-09T03:30:32.173Z,92.00
2017-12-09T03:32:59.617Z,92.00
2017-12-09T03:35:27.843Z,91.90
2017-12-09T03:37:55.278Z,91.90
2017-12-09T03:40:22.911Z,91.90
2017-12-09T03:42:51.110Z,91.90
2017-12-09T03:45:18.552Z,91.80
2017-12-09T03:47:46.288Z,91.80
2017-12-09T03:50:13.733Z,91.80
2017-12-09T03:52:41.167Z,91.70
2017-12-09T03:55:08.633Z,91.70
2017-12-09T03:57:36.072Z,91.60
2017-12-09T04:00:03.704Z,91.60
2017-12-09T04:02:31.141Z,91.60
2017-12-09T04:04:59.339Z,91.60
2017-12-09T04:07:26.824Z,91.50
2017-12-09T04:09:55.229Z,91.50
2017-12-09T04:12:22.805Z,91.60
2017-12-09T04:14:50.228Z,91.60
2017-12-09T04:17:17.670Z,91.60
2017-12-09T04:19:45.592Z,91.50
2017-12-09T04:22:13.792Z,91.60
2017-12-09T04:24:41.241Z,91.60
2017-12-09T04:27:09.472Z,91.60
2017-12-09T04:29:36.928Z,91.60
2017-12-09T04:32:04.364Z,91.60
2017-12-09T04:34:31.830Z,91.60
2017-12-09T04:36:59.264Z,91.60
2017-12-09T04:39:27.014Z,91.70
2017-12-09T04:41:55.463Z,91.60
2017-12-09T04:44:22.892Z,91.70
2017-12-09T04:46:50.390Z,91.70
2017-12-09T04:49:18.603Z,91.60
2017-12-09T04:51:46.249Z,91.60
2017-12-09T04:54:13.724Z,91.70
2017-12-09T04:56:45.113Z,91.70
2017-12-09T04:59:12.871Z,91.70
2017-12-09T05:01:40.308Z,91.70
2017-12-09T05:04:07.740Z,91.70
2017-12-09T05:06:35.206Z,91.70
2017-12-09T05:09:02.791Z,91.70
2017-12-09T05:11:30.394Z,91.70
2017-12-09T05:13:58.593Z,91.70
2017-12-09T05:16:26.032Z,91.70
2017-12-09T05:18:54.396Z,91.60
2017-12-09T05:21:21.973Z,91.60
2017-12-09T05:23:50.188Z,91.70
2017-12-09T05:26:17.684Z,91.60
2017-12-09T05:28:45.163Z,91.60
2017-12-09T05:31:12.636Z,91.60
2017-12-09T05:33:40.290Z,91.60
2017-12-09T05:36:08.737Z,91.80
2017-12-09T05:38:36.168Z,91.70
2017-12-09T05:41:03.836Z,91.70
2017-12-09T05:43:32.106Z,91.70
2017-12-09T05:46:02.625Z,91.70
2017-12-09T05:48:31.468Z,91.70
2017-12-09T05:50:59.684Z,91.70
2017-12-09T05:53:27.308Z,91.70
2017-12-09T05:55:55.512Z,91.80
2017-12-09T05:58:22.956Z,91.80
2017-12-09T06:00:52.348Z,91.80
2017-12-09T06:03:20.550Z,91.90
2017-12-09T06:05:48.048Z,91.80
2017-12-09T06:08:16.428Z,91.80
2017-12-09T06:10:43.881Z,91.80
2017-12-09T06:13:11.432Z,91.80
2017-12-09T06:15:38.868Z,91.80
2017-12-09T06:18:06.325Z,91.90
2017-12-09T06:20:34.784Z,91.90
2017-12-09T06:23:03.040Z,91.90
2017-12-09T06:25:31.261Z,91.90
2017-12-09T06:27:58.721Z,91.90
2017-12-09T06:30:26.583Z,91.80
2017-12-09T06:32:54.077Z,91.80
2017-12-09T06:35:21.517Z,91.80
2017-12-09T06:37:48.964Z,91.80
2017-12-09T06:40:27.400Z,91.80
2017-12-09T06:42:54.865Z,91.80
2017-12-09T06:45:22.304Z,91.80
2017-12-09T06:47:49.839Z,91.80
2017-12-09T06:50:18.065Z,92.10
2017-12-09T06:52:45.525Z,91.90
2017-12-09T06:55:13.005Z,91.90
2017-12-09T06:57:41.199Z,91.90
2017-12-09T07:00:08.641Z,91.90
2017-12-09T07:02:36.917Z,91.90
2017-12-09T07:05:05.120Z,92.00
2017-12-09T07:07:32.552Z,91.90
2017-12-09T07:10:00.064Z,92.00
2017-12-09T07:12:27.517Z,92.00
2017-12-09T07:14:55.000Z,92.10
2017-12-09T07:17:22.485Z,92.10
2017-12-09T07:19:49.953Z,92.30
2017-12-09T07:22:17.420Z,92.20
2017-12-09T07:24:45.873Z,92.20
2017-12-09T07:27:15.021Z,92.10
2017-12-09T07:29:42.464Z,92.10
2017-12-09T07:32:09.907Z,92.10
2017-12-09T07:34:37.386Z,92.10
2017-12-09T07:37:04.828Z,92.10
2017-12-09T07:39:33.058Z,92.10
2017-12-09T07:42:00.495Z,92.10
2017-12-09T07:44:28.108Z,92.10
2017-12-09T07:46:56.544Z,92.20
2017-12-09T07:49:24.023Z,92.20
2017-12-09T07:51:51.449Z,92.20
2017-12-09T07:54:18.948Z,92.20
2017-12-09T07:56:47.157Z,92.20
2017-12-09T07:59:14.597Z,92.20
2017-12-09T08:01:42.193Z,92.20
2017-12-09T08:04:09.657Z,92.20
2017-12-09T08:06:37.100Z,92.20
2017-12-09T08:09:08.353Z,92.20
2017-12-09T08:11:35.793Z,92.30
2017-12-09T08:14:03.259Z,92.30
2017-12-09T08:16:35.080Z,92.40
2017-12-09T08:19:03.709Z,92.40
2017-12-09T08:21:31.149Z,92.40
2017-12-09T08:23:58.626Z,92.40
2017-12-09T08:26:26.059Z,92.30
2017-12-09T08:28:53.646Z,92.40
2017-12-09T08:31:21.117Z,92.50
2017-12-09T08:33:49.389Z,92.50
2017-12-09T08:36:16.895Z,92.40
2017-12-09T08:38:44.384Z,92.40
2017-12-09T08:41:11.816Z,92.30
2017-12-09T08:43:39.261Z,92.20
2017-12-09T08:46:07.485Z,92.20
2017-12-09T08:48:34.988Z,92.20
2017-12-09T08:51:03.332Z,92.20
2017-12-09T08:53:30.769Z,92.10
2017-12-09T08:55:58.233Z,92.20
2017-12-09T08:58:25.805Z,92.10
2017-12-09T09:00:53.244Z,92.20
2017-12-09T09:03:20.708Z,92.20
2017-12-09T09:05:48.160Z,92.20
2017-12-09T09:08:15.589Z,92.20
2017-12-09T09:10:43.385Z,92.10
2017-12-09T09:13:10.825Z,92.20
2017-12-09T09:15:38.265Z,92.20
2017-12-09T09:18:05.775Z,92.20
2017-12-09T09:20:33.200Z,92.20
2017-12-09T09:23:01.397Z,92.20
2017-12-09T09:25:28.937Z,92.20
2017-12-09T09:27:56.373Z,92.20
2017-12-09T09:30:24.069Z,92.20
2017-12-09T09:32:51.508Z,92.20
2017-12-09T09:35:18.968Z,92.20
2017-12-09T09:37:46.410Z,92.10
2017-12-09T09:40:16.591Z,92.20
2017-12-09T09:42:44.025Z,92.20
2017-12-09T09:45:11.457Z,92.20
2017-12-09T09:47:41.844Z,92.20
2017-12-09T09:50:10.045Z,92.30
2017-12-09T09:52:37.529Z,92.30
2017-12-09T09:55:04.991Z,92.20
2017-12-09T09:57:32.426Z,92.30
2017-12-09T09:59:59.892Z,92.30
2017-12-09T10:02:27.329Z,92.20
2017-12-09T10:04:54.968Z,92.20
2017-12-09T10:07:22.401Z,92.30
2017-12-09T10:09:49.845Z,92.30
2017-12-09T10:12:17.307Z,92.20
2017-12-09T10:14:44.769Z,92.20
2017-12-09T10:17:12.209Z,92.10
2017-12-09T10:19:39.641Z,92.20
2017-12-09T10:22:07.200Z,92.20
2017-12-09T10:24:34.632Z,92.10
2017-12-09T10:27:02.860Z,92.20
2017-12-09T10:29:30.324Z,92.20
2017-12-09T10:31:57.756Z,92.10
2017-12-09T10:34:25.312Z,92.20
2017-12-09T10:36:52.741Z,92.10
2017-12-09T10:39:21.095Z,92.10
2017-12-09T10:41:48.540Z,92.10
2017-12-09T10:44:15.982Z,92.10
2017-12-09T10:46:43.442Z,92.00
2017-12-09T10:49:11.171Z,92.00
2017-12-09T10:51:39.382Z,92.10
2017-12-09T10:54:06.821Z,92.10
2017-12-09T10:56:38.073Z,92.10
2017-12-09T10:59:05.571Z,92.20
2017-12-09T11:01:33.058Z,92.10
2017-12-09T11:04:01.407Z,92.10
2017-12-09T11:06:28.836Z,92.10
2017-12-09T11:08:56.282Z,92.00
2017-12-09T11:11:23.732Z,92.00
2017-12-09T11:13:51.332Z,91.90
2017-12-09T11:16:18.765Z,91.90
2017-12-09T11:18:46.251Z,91.80
2017-12-09T11:21:13.809Z,91.80
2017-12-09T11:23:41.271Z,91.80
2017-12-09T11:26:08.724Z,91.80
2017-12-09T11:28:36.377Z,91.80
2017-12-09T11:31:04.001Z,91.80
2017-12-09T11:33:31.429Z,91.70
2017-12-09T11:35:59.748Z,91.90
2017-12-09T11:38:27.189Z,91.90
2017-12-09T11:40:54.651Z,91.80
2017-12-09T11:43:22.857Z,91.90
2017-12-09T11:45:52.176Z,91.90
2017-12-09T11:48:19.611Z,91.90
2017-12-09T11:50:47.049Z,91.80
2017-12-09T11:53:14.561Z,91.80
2017-12-09T11:55:42.832Z,91.70
2017-12-09T11:58:10.289Z,91.80
2017-12-09T12:00:37.721Z,91.70
2017-12-09T12:03:05.232Z,91.70
2017-12-09T12:05:32.692Z,91.70
2017-12-09T12:08:00.970Z,91.70
2017-12-09T12:10:29.193Z,91.60
2017-12-09T12:12:56.625Z,91.60
2017-12-09T12:15:28.522Z,91.60
2017-12-09T12:17:55.948Z,91.60
2017-12-09T12:20:24.750Z,91.60
2017-12-09T12:22:52.193Z,91.70
2017-12-09T12:25:20.396Z,91.70
2017-12-09T12:27:47.984Z,91.70
2017-12-09T12:30:16.191Z,91.80
2017-12-09T12:32:43.677Z,91.70
2017-12-09T12:35:11.116Z,91.80
2017-12-09T12:37:38.563Z,91.80
2017-12-09T12:40:06.123Z,91.80
2017-12-09T12:42:33.586Z,91.80
2017-12-09T12:45:01.785Z,91.60
2017-12-09T12:47:29.261Z,91.60
2017-12-09T12:49:58.757Z,91.50
2017-12-09T12:52:26.193Z,91.60
2017-12-09T12:54:53.661Z,91.50
2017-12-09T12:57:21.102Z,91.60
2017-12-09T12:59:48.985Z,91.60
2017-12-09T13:02:19.350Z,91.60
2017-12-09T13:04:47.558Z,91.70
2017-12-09T13:07:15.017Z,91.70
2017-12-09T13:09:43.245Z,91.70
2017-12-09T13:12:10.686Z,91.70
2017-12-09T13:14:43.223Z,91.70
2017-12-09T13:17:10.657Z,91.70
2017-12-09T13:19:38.870Z,91.70
2017-12-09T13:22:09.189Z,91.70
2017-12-09T13:24:38.361Z,91.60
2017-12-09T13:27:05.844Z,91.60
2017-12-09T13:29:33.337Z,91.60
2017-12-09T13:32:11.530Z,91.60
2017-12-09T13:34:38.956Z,91.60
2017-12-09T13:37:06.388Z,91.60
2017-12-09T13:39:36.058Z,91.60
2017-12-09T13:42:03.527Z,91.60
2017-12-09T13:44:30.962Z,91.70
2017-12-09T13:46:58.432Z,91.70
2017-12-09T13:49:25.873Z,91.70
2017-12-09T13:51:53.309Z,91.60
2017-12-09T13:54:20.783Z,91.60
2017-12-09T13:56:48.450Z,91.90
2017-12-09T13:59:28.030Z,91.60
2017-12-09T14:01:55.466Z,91.60
2017-12-09T14:04:22.901Z,91.60
2017-12-09T14:06:50.382Z,91.60
2017-12-09T14:09:17.818Z,91.70
2017-12-09T14:11:47.249Z,91.70
2017-12-09T14:14:17.353Z,91.60
2017-12-09T14:16:44.797Z,91.60
2017-12-09T14:19:12.357Z,91.60
2017-12-09T14:21:39.829Z,91.60
2017-12-09T14:24:08.392Z,91.50
2017-12-09T14:26:36.058Z,91.50
2017-12-09T14:29:04.048Z,91.50
2017-12-09T14:31:31.622Z,91.40
2017-12-09T14:33:59.362Z,91.40
2017-12-09T14:36:27.199Z,91.40
2017-12-09T14:38:54.839Z,91.50
2017-12-09T14:41:23.625Z,91.50
2017-12-09T14:43:51.835Z,91.40
2017-12-09T14:46:19.264Z,91.40
2017-12-09T14:48:47.696Z,91.90
2017-12-09T14:51:15.136Z,91.60
2017-12-09T14:53:43.369Z,91.40
2017-12-09T14:56:10.816Z,91.40
2017-12-09T14:58:38.270Z,91.40
2017-12-09T15:01:05.719Z,91.40
2017-12-09T15:03:34.514Z,91.50
2017-12-09T15:06:01.937Z,91.50
2017-12-09T15:08:29.409Z,91.50
2017-12-09T15:10:56.989Z,91.50
2017-12-09T15:13:25.397Z,91.50
2017-12-09T15:15:53.631Z,91.50
2017-12-09T15:18:21.117Z,91.60
2017-12-09T15:20:48.563Z,91.40
2017-12-09T15:23:16.953Z,91.50
2017-12-09T15:25:45.181Z,91.80
2017-12-09T15:28:12.742Z,91.50
2017-12-09T15:30:41.423Z,91.50
2017-12-09T15:33:08.932Z,91.50
2017-12-09T15:35:36.453Z,91.60
2017-12-09T15:38:04.037Z,91.50
2017-12-09T15:40:31.470Z,91.50
2017-12-09T15:42:59.032Z,91.40
2017-12-09T15:45:26.468Z,91.50
2017-12-09T15:47:53.905Z,91.50
2017-12-09T15:50:22.424Z,91.50
2017-12-09T15:52:49.889Z,91.50
2017-12-09T15:55:18.282Z,91.50
2017-12-09T15:57:45.741Z,91.50
2017-12-09T16:00:13.181Z,91.50
2017-12-09T16:02:40.633Z,91.50
2017-12-09T16:05:08.079Z,91.50
2017-12-09T16:07:35.590Z,91.50
2017-12-09T16:10:03.027Z,91.50
2017-12-09T16:12:40.541Z,91.50
2017-12-09T16:15:08.755Z,91.60
2017-12-09T16:17:36.182Z,91.50
2017-12-09T16:20:04.452Z,91.80
2017-12-09T16:22:32.669Z,91.40
2017-12-09T16:25:02.017Z,91.40
2017-12-09T16:27:29.505Z,91.50
2017-12-09T16:29:57.861Z,91.40
2017-12-09T16:32:25.292Z,91.40
2017-12-09T16:34:52.826Z,91.40
2017-12-09T16:37:20.256Z,91.40
2017-12-09T16:39:47.684Z,91.30
2017-12-09T16:42:15.235Z,91.30
2017-12-09T16:44:42.684Z,91.30
2017-12-09T16:47:10.168Z,91.30
2017-12-09T16:49:38.510Z,91.30
2017-12-09T16:52:06.020Z,91.30
2017-12-09T16:54:34.232Z,91.20
2017-12-09T16:57:01.700Z,91.20
2017-12-09T16:59:29.141Z,91.20
2017-12-09T17:01:56.624Z,91.20
2017-12-09T17:04:24.056Z,91.10
2017-12-09T17:06:51.496Z,91.40
2017-12-09T17:09:20.429Z,91.20
2017-12-09T17:11:47.866Z,91.10
2017-12-09T17:14:15.301Z,91.00
2017-12-09T17:16:42.776Z,91.00
2017-12-09T17:19:10.201Z,91.00
2017-12-09T17:21:38.536Z,91.00
2017-12-09T17:24:06.921Z,91.00
2017-12-09T17:26:34.420Z,91.00
2017-12-09T17:29:03.158Z,91.00
2017-12-09T17:31:30.614Z,91.00
2017-12-09T17:33:58.177Z,91.00
2017-12-09T17:36:25.613Z,91.00
2017-12-09T17:38:53.053Z,91.00
2017-12-09T17:41:20.545Z,91.00
2017-12-09T17:43:47.968Z,90.90
2017-12-09T17:46:15.396Z,90.90
2017-12-09T17:48:44.444Z,91.00
2017-12-09T17:51:11.913Z,91.00
2017-12-09T17:53:41.325Z,90.90
2017-12-09T17:56:08.789Z,90.90
2017-12-09T17:58:36.222Z,90.90
2017-12-09T18:01:03.706Z,90.90
2017-12-09T18:03:31.140Z,90.90
2017-12-09T18:05:58.733Z,90.90
2017-12-09T18:08:26.169Z,90.90
2017-12-09T18:10:53.648Z,90.80
2017-12-09T18:13:21.091Z,90.90
2017-12-09T18:15:48.521Z,90.80
2017-12-09T18:18:16.769Z,90.80
2017-12-09T18:20:47.264Z,90.80
2017-12-09T18:23:14.698Z,90.80
2017-12-09T18:25:42.205Z,90.80
2017-12-09T18:28:10.424Z,90.70
2017-12-09T18:30:37.885Z,90.70
2017-12-09T18:33:05.396Z,90.70
2017-12-09T18:35:33.610Z,90.70
2017-12-09T18:38:01.037Z,90.70
2017-12-09T18:40:28.532Z,90.60
2017-12-09T18:42:55.969Z,90.60
2017-12-09T18:45:30.409Z,90.60
2017-12-09T18:47:57.912Z,90.60
2017-12-09T18:50:26.494Z,90.60
2017-12-09T18:52:54.904Z,90.50
2017-12-09T18:55:22.356Z,90.50
2017-12-09T18:57:50.560Z,90.50
2017-12-09T19:00:18.005Z,90.50
2017-12-09T19:02:45.637Z,90.50
2017-12-09T19:05:13.840Z,90.40
2017-12-09T19:07:42.038Z,90.40
2017-12-09T19:10:09.494Z,90.40
2017-12-09T19:12:36.953Z,90.40
2017-12-09T19:15:04.571Z,90.40
2017-12-09T19:17:31.856Z,90.40
2017-12-09T19:19:59.289Z,90.40
2017-12-09T19:22:26.880Z,90.70
2017-12-09T19:24:57.333Z,90.40
2017-12-09T19:27:25.145Z,90.30
2017-12-09T19:29:52.580Z,90.40
2017-12-09T19:32:20.777Z,90.30
2017-12-09T19:34:48.233Z,90.30
2017-12-09T19:37:15.793Z,90.30
2017-12-09T19:39:43.348Z,90.30
2017-12-09T19:42:10.789Z,90.50
2017-12-09T19:44:38.981Z,90.30
2017-12-09T19:47:06.457Z,90.30
2017-12-09T19:49:33.893Z,90.60
2017-12-09T19:52:01.387Z,90.30
2017-12-09T19:54:29.028Z,90.30
2017-12-09T19:56:56.492Z,90.30
2017-12-09T19:59:24.736Z,90.30
2017-12-09T20:01:52.938Z,90.40
2017-12-09T20:04:25.332Z,90.40
2017-12-09T20:06:52.769Z,90.40
2017-12-09T20:09:20.221Z,90.40
2017-12-09T20:11:47.768Z,90.40
2017-12-09T20:14:15.209Z,90.40
2017-12-09T20:16:43.524Z,90.50
2017-12-09T20:19:10.949Z,90.50
2017-12-09T20:21:39.153Z,90.50
2017-12-09T20:24:06.644Z,90.50
2017-12-09T20:26:34.332Z,90.50
2017-12-09T20:29:01.760Z,90.50
2017-12-09T20:31:29.565Z,90.60
2017-12-09T20:33:57.765Z,90.60
2017-12-09T20:36:25.196Z,90.50
2017-12-09T20:38:53.720Z,90.50
2017-12-09T20:41:21.161Z,90.50
2017-12-09T20:43:48.584Z,90.50
2017-12-09T20:46:16.937Z,90.50
2017-12-09T20:48:44.368Z,90.40
2017-12-09T20:51:11.874Z,90.40
2017-12-09T20:53:39.329Z,90.80
2017-12-09T20:56:06.756Z,90.40
2017-12-09T20:58:34.340Z,90.70
2017-12-09T21:01:01.776Z,90.40
2017-12-09T21:03:29.228Z,90.40
2017-12-09T21:05:56.662Z,90.50
2017-12-09T21:08:24.148Z,90.40
2017-12-09T21:10:51.580Z,90.50
2017-12-09T21:13:19.012Z,90.50
2017-12-09T21:15:47.352Z,90.50
2017-12-09T21:18:14.818Z,90.50
2017-12-09T21:20:42.300Z,90.50
2017-12-09T21:23:10.540Z,90.50
2017-12-09T21:25:46.087Z,90.50
2017-12-09T21:28:13.608Z,90.50
2017-12-09T21:30:41.045Z,90.50
2017-12-09T21:33:08.852Z,90.50
2017-12-09T21:35:52.139Z,90.40
2017-12-09T21:38:20.352Z,90.40
2017-12-09T21:40:47.851Z,90.40
2017-12-09T21:43:15.293Z,90.40
2017-12-09T21:45:42.732Z,90.40
2017-12-09T21:48:10.320Z,90.40
2017-12-09T21:50:37.756Z,90.40
2017-12-09T21:53:09.665Z,90.20
2017-12-09T21:55:37.096Z,90.40
2017-12-09T21:58:09.446Z,90.50
2017-12-09T22:00:36.885Z,90.50
2017-12-09T22:03:04.320Z,90.50
2017-12-09T22:05:31.901Z,90.60
2017-12-09T22:07:59.336Z,90.60
2017-12-09T22:10:26.810Z,90.60
2017-12-09T22:12:54.398Z,90.70
2017-12-09T22:15:22.940Z,90.60
2017-12-09T22:17:50.394Z,90.70
2017-12-09T22:20:18.055Z,90.60
2017-12-09T22:22:45.614Z,90.60
2017-12-09T22:25:13.056Z,90.70
2017-12-09T22:27:42.329Z,90.70
2017-12-09T22:30:09.793Z,90.70
2017-12-09T22:32:37.228Z,90.70
2017-12-09T22:35:04.889Z,90.80
2017-12-09T22:37:32.325Z,90.80
2017-12-09T22:39:59.921Z,90.80
2017-12-09T22:42:27.452Z,90.80
2017-12-09T22:44:55.678Z,90.80
2017-12-09T22:47:23.901Z,90.90
2017-12-09T22:49:51.429Z,90.80
2017-12-09T22:52:18.862Z,90.90
2017-12-09T22:54:46.300Z,90.80
2017-12-09T22:57:13.801Z,90.80
2017-12-09T22:59:41.237Z,90.90
2017-12-09T23:02:09.468Z,90.90
2017-12-09T23:04:36.901Z,90.90
2017-12-09T23:07:04.504Z,90.90
2017-12-09T23:09:31.941Z,90.90
2017-12-09T23:11:59.399Z,91.20
2017-12-09T23:14:26.838Z,90.90
2017-12-09T23:16:54.295Z,90.90
2017-12-09T23:19:21.719Z,91.30
2017-12-09T23:21:49.960Z,91.00
2017-12-09T23:24:17.399Z,91.00
2017-12-09T23:26:44.842Z,90.90
2017-12-09T23:29:17.343Z,90.90
2017-12-09T23:31:44.781Z,90.90
2017-12-09T23:34:12.302Z,91.00
2017-12-09T23:36:40.504Z,91.00
2017-12-09T23:39:07.973Z,91.00
2017-12-09T23:41:35.410Z,91.00
2017-12-09T23:44:02.886Z,91.00
2017-12-09T23:46:31.086Z,91.00
2017-12-09T23:48:58.529Z,91.00
2017-12-09T23:51:26.351Z,91.00
2017-12-09T23:53:54.554Z,91.00
2017-12-09T23:56:21.988Z,91.00
2017-12-09T23:58:50.213Z,91.00
